Airport View

Enter AWOS ICAO identifier for current METAR.

ex. KFNL

KSAV 262353Z 25003KT 10SM BKN150 13/02 A3003 RMK AO2 SLP169 T01280022 10172 20122 51005 $

27 Jan 2020 00:11

Phone: 912-966-0364

Other Area AWOS: KSVN - KLHW - KHXD - KNBC

TAF KSAV 262338Z 2700/2724 26003KT P6SM BKN090 FM270730 25003KT 6SM -RA FEW020 OVC050 FM271300 24007KT P6SM SCT020 OVC035 FM271700 25010KT P6SM BKN040